createdAt,value
2023-04-22T00:00:40.638Z,61.43
2023-04-22T00:03:10.471Z,61.05
2023-04-22T00:05:38.691Z,61.29
2023-04-22T00:08:06.559Z,61.11
2023-04-22T00:10:34.620Z,61.11
2023-04-22T00:13:02.829Z,61.17
2023-04-22T00:15:30.773Z,61.19
2023-04-22T00:17:58.780Z,61.43
2023-04-22T00:20:26.639Z,61.45
2023-04-22T00:22:54.460Z,61.37
2023-04-22T00:25:22.477Z,62.15
2023-04-22T00:27:50.354Z,62.14
2023-04-22T00:30:18.308Z,62.70
2023-04-22T00:32:48.574Z,62.05
2023-04-22T00:35:16.415Z,61.95
2023-04-22T00:37:44.340Z,61.98
2023-04-22T00:40:12.571Z,61.93
2023-04-22T00:42:43.385Z,61.97
2023-04-22T00:45:25.680Z,62.08
2023-04-22T00:47:54.014Z,62.14
2023-04-22T00:50:21.813Z,62.01
2023-04-22T00:52:50.111Z,62.09
2023-04-22T00:55:18.238Z,62.33
2023-04-22T00:57:49.349Z,62.39
2023-04-22T01:00:19.612Z,62.59
2023-04-22T01:02:48.264Z,62.86
2023-04-22T01:05:17.097Z,62.88
2023-04-22T01:07:45.037Z,62.96
2023-04-22T01:10:13.378Z,62.94
2023-04-22T01:12:41.402Z,63.04
2023-04-22T01:15:10.545Z,63.18
2023-04-22T01:17:38.394Z,62.97
2023-04-22T01:20:09.673Z,62.85
2023-04-22T01:22:45.061Z,62.73
2023-04-22T01:25:13.241Z,62.78
2023-04-22T01:27:41.506Z,63.07
2023-04-22T01:30:10.897Z,63.04
2023-04-22T01:32:40.848Z,63.16
2023-04-22T01:35:10.428Z,62.96
2023-04-22T01:37:39.023Z,62.96
2023-04-22T01:40:10.118Z,62.95
2023-04-22T01:42:38.971Z,62.99
2023-04-22T01:45:07.969Z,63.00
2023-04-22T01:47:35.932Z,63.04
2023-04-22T01:50:04.033Z,63.18
2023-04-22T01:52:31.954Z,63.26
2023-04-22T01:55:00.858Z,63.24
2023-04-22T01:57:31.955Z,63.24
2023-04-22T02:00:00.694Z,63.27
2023-04-22T02:02:28.691Z,63.38
2023-04-22T02:04:57.521Z,63.56
2023-04-22T02:07:25.654Z,63.49
2023-04-22T02:09:53.525Z,63.50
2023-04-22T02:12:21.477Z,63.58
2023-04-22T02:14:49.229Z,63.81
2023-04-22T02:17:17.399Z,63.78
2023-04-22T02:19:46.729Z,64.08
2023-04-22T02:22:15.211Z,64.13
2023-04-22T02:24:43.256Z,64.13
2023-04-22T02:27:11.219Z,64.15
2023-04-22T02:29:39.224Z,64.43
2023-04-22T02:32:08.079Z,64.24
2023-04-22T02:34:36.034Z,64.25
2023-04-22T02:37:03.794Z,64.27
2023-04-22T02:39:31.983Z,64.26
2023-04-22T02:42:00.888Z,64.16
2023-04-22T02:44:28.637Z,64.34
2023-04-22T02:46:56.532Z,64.41
2023-04-22T02:49:24.583Z,64.47
2023-04-22T02:51:53.585Z,64.37
2023-04-22T02:54:21.500Z,64.44
2023-04-22T02:56:49.232Z,64.45
2023-04-22T02:59:17.034Z,64.55
2023-04-22T03:01:45.130Z,64.66
2023-04-22T03:04:15.439Z,64.80
2023-04-22T03:06:43.842Z,64.85
2023-04-22T03:09:11.870Z,64.76
2023-04-22T03:11:39.590Z,64.86
2023-04-22T03:14:07.488Z,64.82
2023-04-22T03:16:35.468Z,64.87
2023-04-22T03:19:04.959Z,64.99
2023-04-22T03:21:32.646Z,65.46
2023-04-22T03:24:00.712Z,65.44
2023-04-22T03:26:28.976Z,65.78
2023-04-22T03:28:56.869Z,65.83
2023-04-22T03:31:24.695Z,65.94
2023-04-22T03:33:52.633Z,66.37
2023-04-22T03:36:22.475Z,66.29
2023-04-22T03:38:51.102Z,66.47
2023-04-22T03:41:19.329Z,66.74
2023-04-22T03:43:48.572Z,66.78
2023-04-22T03:46:17.653Z,66.79
2023-04-22T03:48:47.234Z,66.97
2023-04-22T03:51:16.913Z,67.27
2023-04-22T03:53:44.974Z,67.34
2023-04-22T03:56:17.690Z,67.49
2023-04-22T03:58:52.115Z,66.61
2023-04-22T04:01:20.171Z,65.74
2023-04-22T04:03:50.050Z,65.34
2023-04-22T04:06:18.292Z,65.07
2023-04-22T04:08:46.787Z,65.08
2023-04-22T04:11:14.482Z,65.03
2023-04-22T04:13:42.312Z,64.91
2023-04-22T04:16:15.983Z,65.02
2023-04-22T04:18:44.576Z,65.32
2023-04-22T04:21:12.879Z,65.51
2023-04-22T04:23:42.439Z,65.54
2023-04-22T04:26:10.544Z,64.57
2023-04-22T04:28:41.072Z,63.79
2023-04-22T04:31:09.436Z,63.84
2023-04-22T04:33:38.858Z,62.63
2023-04-22T04:36:08.591Z,61.52
2023-04-22T04:38:36.923Z,58.38
2023-04-22T04:41:05.166Z,58.00
2023-04-22T04:43:34.712Z,56.18
2023-04-22T04:46:05.064Z,54.98
2023-04-22T04:48:35.586Z,53.20
2023-04-22T04:51:05.699Z,52.05
2023-04-22T04:53:35.382Z,50.41
2023-04-22T04:56:03.365Z,50.10
2023-04-22T04:58:32.810Z,49.34
2023-04-22T05:01:02.551Z,48.81
2023-04-22T05:03:31.208Z,47.75
2023-04-22T05:06:02.825Z,45.61
2023-04-22T05:08:30.814Z,46.44
2023-04-22T05:11:00.878Z,46.61
2023-04-22T05:13:29.497Z,47.65
2023-04-22T05:15:57.715Z,48.17
2023-04-22T05:18:27.560Z,48.62
2023-04-22T05:20:57.519Z,49.64
2023-04-22T05:23:26.930Z,50.03
2023-04-22T05:26:00.046Z,50.52
2023-04-22T05:28:28.177Z,51.20
2023-04-22T05:30:59.511Z,51.37
2023-04-22T05:33:31.361Z,51.68
2023-04-22T05:35:59.506Z,51.99
2023-04-22T05:38:28.244Z,52.61
2023-04-22T05:40:56.830Z,53.07
2023-04-22T05:43:25.512Z,53.82
2023-04-22T05:45:57.669Z,53.47
2023-04-22T05:48:25.704Z,53.01
2023-04-22T05:50:55.222Z,52.13
2023-04-22T05:53:23.167Z,50.95
2023-04-22T05:55:52.060Z,50.47
2023-04-22T05:58:20.254Z,48.99
2023-04-22T06:01:13.426Z,48.60
2023-04-22T06:03:52.154Z,47.95
2023-04-22T06:06:23.991Z,47.58
2023-04-22T06:08:52.374Z,47.55
2023-04-22T06:11:20.333Z,47.98
2023-04-22T06:13:48.170Z,48.86
2023-04-22T06:19:45.828Z,47.54
2023-04-22T06:22:14.065Z,46.98
2023-04-22T06:24:46.404Z,47.54
2023-04-22T06:27:17.057Z,47.24
2023-04-22T06:29:45.150Z,46.82
2023-04-22T06:32:13.941Z,46.53
2023-04-22T06:34:43.343Z,46.34
2023-04-22T06:37:20.483Z,46.35
2023-04-22T06:39:52.313Z,46.40
2023-04-22T06:42:31.126Z,46.56
2023-04-22T06:45:14.091Z,45.68
2023-04-22T06:47:57.008Z,44.97
2023-04-22T06:50:27.315Z,43.14
2023-04-22T06:52:59.299Z,42.00
2023-04-22T06:55:31.008Z,41.48
2023-04-22T06:58:02.211Z,40.76
2023-04-22T07:00:30.375Z,39.84
2023-04-22T07:02:59.019Z,39.70
2023-04-22T07:05:30.468Z,39.56
2023-04-22T07:08:04.178Z,38.70
2023-04-22T07:10:36.811Z,38.23
2023-04-22T07:13:15.249Z,37.04
2023-04-22T07:15:43.514Z,36.25
2023-04-22T07:18:11.719Z,36.91
2023-04-22T07:20:39.854Z,37.29
2023-04-22T07:23:08.245Z,35.88
2023-04-22T07:25:36.137Z,34.93
2023-04-22T07:28:04.373Z,34.46
2023-04-22T07:30:33.769Z,34.41
2023-04-22T07:33:02.083Z,33.58
2023-04-22T07:35:31.307Z,33.38
2023-04-22T07:37:59.400Z,32.19
2023-04-22T07:40:27.926Z,31.78
2023-04-22T07:42:55.930Z,31.09
2023-04-22T07:45:23.968Z,31.09
2023-04-22T07:47:52.028Z,30.37
2023-04-22T07:50:19.802Z,29.55
2023-04-22T07:52:47.670Z,29.65
2023-04-22T07:55:15.827Z,29.62
2023-04-22T07:57:43.731Z,30.14
2023-04-22T08:00:13.367Z,29.55
2023-04-22T08:02:41.692Z,28.77
2023-04-22T08:05:10.923Z,28.56
2023-04-22T08:07:39.036Z,28.10
2023-04-22T08:10:08.024Z,27.62
2023-04-22T08:12:36.685Z,28.65
2023-04-22T08:15:05.807Z,29.45
2023-04-22T08:17:35.619Z,29.22
2023-04-22T08:20:06.517Z,28.73
2023-04-22T08:22:35.302Z,28.66
2023-04-22T08:25:09.596Z,28.86
2023-04-22T08:27:41.722Z,27.06
2023-04-22T08:30:10.364Z,27.52
2023-04-22T08:32:38.433Z,28.88
2023-04-22T08:38:39.294Z,28.95
2023-04-22T08:41:07.146Z,28.98
2023-04-22T08:43:36.425Z,28.92
2023-04-22T08:46:04.567Z,28.43
2023-04-22T08:48:41.404Z,27.38
2023-04-22T08:51:18.197Z,27.37
2023-04-22T08:53:52.952Z,27.67
2023-04-22T08:56:27.087Z,24.63
2023-04-22T08:58:56.751Z,24.52
2023-04-22T09:01:26.424Z,25.57
2023-04-22T09:03:59.395Z,25.11
2023-04-22T09:06:27.453Z,25.15
2023-04-22T09:08:55.608Z,25.31
2023-04-22T09:11:23.565Z,25.46
2023-04-22T09:13:54.828Z,25.48
2023-04-22T09:16:26.075Z,24.59
2023-04-22T09:18:54.113Z,24.33
2023-04-22T09:21:31.607Z,24.43
2023-04-22T09:24:02.555Z,24.53
2023-04-22T09:26:36.733Z,24.81
2023-04-22T09:29:09.240Z,24.51
2023-04-22T09:31:37.487Z,23.97
2023-04-22T09:34:09.516Z,23.69
2023-04-22T09:36:37.321Z,24.19
2023-04-22T09:39:09.003Z,22.96
2023-04-22T11:13:47.511Z,21.38
2023-04-22T11:16:15.854Z,21.28
2023-04-22T11:18:46.759Z,21.13
2023-04-22T11:21:18.097Z,21.39
2023-04-22T11:23:52.849Z,21.68
2023-04-22T12:46:40.144Z,22.92
2023-04-22T14:34:40.328Z,22.09
2023-04-22T14:37:08.553Z,22.27
2023-04-22T14:49:48.294Z,22.60
2023-04-22T14:52:17.834Z,22.43
2023-04-22T14:58:53.380Z,22.41
2023-04-22T15:01:22.450Z,22.43
2023-04-22T15:03:51.578Z,22.78
2023-04-22T15:06:19.499Z,22.74
2023-04-22T15:08:47.944Z,21.91
2023-04-22T15:11:15.782Z,22.37
2023-04-22T15:13:44.535Z,22.13
2023-04-22T15:16:12.937Z,22.29
2023-04-22T15:18:42.987Z,22.75
2023-04-22T15:21:12.097Z,22.77
2023-04-22T15:23:41.430Z,22.74
2023-04-22T15:26:09.604Z,22.56
2023-04-22T15:28:38.808Z,22.67
2023-04-22T15:31:11.974Z,22.67
2023-04-22T15:33:42.801Z,23.58
2023-04-22T15:36:10.795Z,24.35
2023-04-22T15:38:39.851Z,24.48
2023-04-22T15:41:08.347Z,25.45
2023-04-22T15:43:41.507Z,25.90
2023-04-22T15:46:09.137Z,26.24
2023-04-22T15:48:41.436Z,26.43
2023-04-22T15:51:24.353Z,27.27
2023-04-22T15:54:04.006Z,27.61
2023-04-22T15:56:33.907Z,27.41
2023-04-22T15:59:02.300Z,27.53
2023-04-22T16:01:30.231Z,28.10
2023-04-22T16:03:59.794Z,28.11
2023-04-22T16:06:27.605Z,28.33
2023-04-22T16:08:56.673Z,28.28
2023-04-22T16:11:26.587Z,28.56
2023-04-22T16:14:00.387Z,28.78
2023-04-22T16:16:31.280Z,28.86
2023-04-22T16:18:59.967Z,28.67
2023-04-22T16:21:36.491Z,28.95
2023-04-22T16:24:06.791Z,29.01
2023-04-22T16:26:34.925Z,29.26
2023-04-22T16:29:02.858Z,29.37
2023-04-22T16:31:39.121Z,29.67
2023-04-22T16:34:07.230Z,29.73
2023-04-22T16:36:39.317Z,30.17
2023-04-22T16:39:14.863Z,30.58
2023-04-22T16:41:49.339Z,30.97
2023-04-22T16:47:27.250Z,31.52
2023-04-22T16:49:55.310Z,31.63
2023-04-22T16:52:23.070Z,31.83
2023-04-22T16:54:51.301Z,32.10
2023-04-22T16:57:21.019Z,32.29
2023-04-22T16:59:51.772Z,32.71
2023-04-22T17:02:20.050Z,32.58
2023-04-22T17:04:49.911Z,33.36
2023-04-22T17:07:18.058Z,33.38
2023-04-22T17:09:46.053Z,33.94
2023-04-22T17:12:15.615Z,33.93
2023-04-22T17:14:45.610Z,34.02
2023-04-22T17:17:18.279Z,34.18
2023-04-22T17:19:47.825Z,34.16
2023-04-22T17:22:17.920Z,34.19
2023-04-22T17:24:47.934Z,34.54
2023-04-22T17:27:16.293Z,34.73
2023-04-22T17:29:44.600Z,34.76
2023-04-22T17:32:14.813Z,35.02
2023-04-22T17:34:43.409Z,35.06
2023-04-22T17:37:16.879Z,35.71
2023-04-22T17:39:44.869Z,36.12
2023-04-22T17:42:16.245Z,36.14
2023-04-22T17:44:45.006Z,36.85
2023-04-22T17:47:21.325Z,36.88
2023-04-22T17:49:51.382Z,37.30
2023-04-22T17:52:24.862Z,37.25
2023-04-22T17:55:04.010Z,37.76
2023-04-22T17:57:50.455Z,37.60
2023-04-22T18:00:21.752Z,38.21
2023-04-22T18:02:50.715Z,39.08
2023-04-22T18:05:22.132Z,39.33
2023-04-22T18:07:50.176Z,39.47
2023-04-22T18:10:27.542Z,40.47
2023-04-22T18:12:56.146Z,39.68
2023-04-22T18:15:26.876Z,39.56
2023-04-22T18:17:55.097Z,39.62
2023-04-22T18:20:22.848Z,39.71
2023-04-22T18:22:51.642Z,39.60
2023-04-22T18:25:26.920Z,39.73
2023-04-22T18:27:54.665Z,39.79
2023-04-22T18:30:32.710Z,39.89
2023-04-22T18:33:04.466Z,40.00
2023-04-22T18:35:34.889Z,40.09
2023-04-22T18:38:03.258Z,40.45
2023-04-22T18:40:31.181Z,40.52
2023-04-22T18:43:03.348Z,41.09
2023-04-22T18:45:35.153Z,41.31
2023-04-22T18:48:04.461Z,41.50
2023-04-22T18:50:34.887Z,41.63
2023-04-22T18:53:02.801Z,41.81
2023-04-22T18:55:31.698Z,41.98
2023-04-22T18:57:59.571Z,42.23
2023-04-22T19:00:27.310Z,42.50
2023-04-22T19:02:55.665Z,42.63
2023-04-22T19:05:25.393Z,42.87
2023-04-22T19:07:53.717Z,42.94
2023-04-22T19:10:29.956Z,43.39
2023-04-22T19:12:58.881Z,43.59
2023-04-22T19:15:26.786Z,44.00
2023-04-22T19:17:54.933Z,44.79
2023-04-22T19:20:23.209Z,45.36
2023-04-22T19:22:51.343Z,45.22
2023-04-22T19:25:21.614Z,45.37
2023-04-22T19:27:50.518Z,45.43
2023-04-22T19:30:19.610Z,45.55
2023-04-22T19:32:52.184Z,45.76
2023-04-22T19:35:20.836Z,45.61
2023-04-22T19:37:49.066Z,45.99
2023-04-22T19:40:18.988Z,46.16
2023-04-22T19:42:49.195Z,46.64
2023-04-22T19:45:19.647Z,46.86
2023-04-22T19:47:48.494Z,46.99
2023-04-22T19:50:17.780Z,47.02
2023-04-22T19:52:47.303Z,47.20
2023-04-22T19:55:16.804Z,47.05
2023-04-22T19:57:45.692Z,47.16
2023-04-22T20:00:14.450Z,47.33
2023-04-22T20:02:43.949Z,47.67
2023-04-22T20:05:12.965Z,48.10
2023-04-22T20:07:45.646Z,48.35
2023-04-22T20:10:17.015Z,48.56
2023-04-22T20:12:46.202Z,48.55
2023-04-22T20:15:14.667Z,48.80
2023-04-22T20:17:43.061Z,49.01
2023-04-22T20:20:17.223Z,49.09
2023-04-22T20:24:29.008Z,49.27
2023-04-22T20:25:57.345Z,49.16
2023-04-22T20:28:32.730Z,49.23
2023-04-22T20:34:22.046Z,49.67
2023-04-22T20:36:54.185Z,50.00
2023-04-22T20:39:24.965Z,50.02
2023-04-22T20:41:59.053Z,50.15
2023-04-22T20:44:28.400Z,50.31
2023-04-22T20:46:58.312Z,50.56
2023-04-22T20:49:26.560Z,50.85
2023-04-22T20:51:56.024Z,51.35
2023-04-22T20:54:29.026Z,51.80
2023-04-22T20:56:54.096Z,52.15
2023-04-22T20:59:21.997Z,52.43
2023-04-22T21:01:52.467Z,52.36
2023-04-22T21:04:23.696Z,52.64
2023-04-22T21:06:54.297Z,52.54
2023-04-22T21:09:26.575Z,52.64
2023-04-22T21:11:55.046Z,52.83
2023-04-22T21:14:25.447Z,52.97
2023-04-22T21:17:00.975Z,53.49
2023-04-22T21:19:35.635Z,53.36
2023-04-22T21:22:05.514Z,53.36
2023-04-22T21:24:37.088Z,53.42
2023-04-22T21:27:07.025Z,53.40
2023-04-22T21:29:37.686Z,53.58
2023-04-22T21:32:09.430Z,53.53
2023-04-22T21:34:37.493Z,53.59
2023-04-22T21:37:07.262Z,53.78
2023-04-22T21:39:36.192Z,53.82
2023-04-22T21:42:06.241Z,53.99
2023-04-22T21:44:35.819Z,53.92
2023-04-22T21:47:04.533Z,53.99
2023-04-22T21:49:32.747Z,54.06
2023-04-22T21:52:00.778Z,54.11
2023-04-22T21:54:29.121Z,54.24
2023-04-22T21:56:57.367Z,54.35
2023-04-22T21:59:25.604Z,54.84
2023-04-22T22:01:53.877Z,54.84
2023-04-22T22:04:22.043Z,54.98
2023-04-22T22:06:50.280Z,55.08
2023-04-22T22:09:18.050Z,55.14
2023-04-22T22:11:46.036Z,55.39
2023-04-22T22:14:14.226Z,55.61
2023-04-22T22:16:43.243Z,55.75
2023-04-22T22:19:11.206Z,56.03
2023-04-22T22:21:38.916Z,56.51
2023-04-22T22:24:08.901Z,56.47
2023-04-22T22:26:38.832Z,56.70
2023-04-22T22:29:08.961Z,56.64
2023-04-22T22:31:36.978Z,56.91
2023-04-22T22:34:05.156Z,56.94
2023-04-22T22:36:34.355Z,57.10
2023-04-22T22:39:04.078Z,57.24
2023-04-22T22:41:33.762Z,57.49
2023-04-22T22:44:01.684Z,57.51
2023-04-22T22:46:30.721Z,57.51
2023-04-22T22:48:58.975Z,57.46
2023-04-22T22:51:28.834Z,57.44
2023-04-22T22:53:56.898Z,57.41
2023-04-22T22:56:25.211Z,57.46
2023-04-22T22:58:53.179Z,57.50
2023-04-22T23:01:21.657Z,57.54
2023-04-22T23:03:49.551Z,57.57
2023-04-22T23:06:17.511Z,57.65
2023-04-22T23:08:45.529Z,58.04
2023-04-22T23:11:13.508Z,58.02
2023-04-22T23:13:41.399Z,58.30
2023-04-22T23:16:09.728Z,58.39
2023-04-22T23:18:39.034Z,58.54
2023-04-22T23:21:07.210Z,58.59
2023-04-22T23:23:36.396Z,58.68
2023-04-22T23:26:04.928Z,58.82
2023-04-22T23:28:34.056Z,59.26
2023-04-22T23:31:05.837Z,59.02
2023-04-22T23:33:38.364Z,59.05
2023-04-22T23:36:16.454Z,59.05
2023-04-22T23:39:14.588Z,59.15
2023-04-22T23:41:42.387Z,59.18
2023-04-22T23:44:11.228Z,59.48
2023-04-22T23:46:38.939Z,59.39
2023-04-22T23:49:07.007Z,59.52
2023-04-22T23:51:35.154Z,59.56
2023-04-22T23:54:03.070Z,59.61
2023-04-22T23:56:31.478Z,59.66
2023-04-22T23:58:59.912Z,59.60
